createdAt,value
2022-12-29T00:02:18.607Z,7.03
2022-12-29T00:07:21.043Z,6.22
2022-12-29T00:12:23.598Z,6.30
2022-12-29T00:17:26.085Z,6.00
2022-12-29T00:22:47.010Z,6.18
2022-12-29T00:28:08.044Z,5.00
2022-12-29T00:33:37.305Z,5.85
2022-12-29T00:39:02.175Z,4.30
2022-12-29T00:44:07.480Z,4.97
2022-12-29T00:49:31.651Z,4.57
2022-12-29T00:54:36.297Z,3.78
2022-12-29T00:59:40.625Z,5.78
2022-12-29T01:04:43.187Z,3.92
2022-12-29T01:10:04.307Z,5.57
2022-12-29T01:15:07.917Z,4.50
2022-12-29T01:20:11.992Z,4.90
2022-12-29T01:25:14.621Z,4.07
2022-12-29T01:30:17.217Z,4.40
2022-12-29T01:35:20.908Z,4.32
2022-12-29T01:40:23.697Z,3.65
2022-12-29T01:45:26.188Z,4.75
2022-12-29T01:50:33.588Z,4.05
2022-12-29T02:00:43.924Z,4.57
2022-12-29T02:05:54.055Z,3.20
2022-12-29T02:10:59.596Z,3.63
2022-12-29T02:16:11.081Z,2.88
2022-12-29T02:21:43.376Z,2.47
2022-12-29T02:26:54.980Z,4.07
2022-12-29T02:32:14.505Z,3.20
2022-12-29T02:42:52.987Z,4.00
2022-12-29T02:48:19.887Z,3.22
2022-12-29T02:53:45.403Z,2.50
2022-12-29T02:58:47.920Z,3.25
2022-12-29T03:04:03.068Z,3.15
2022-12-29T03:09:44.014Z,3.28
2022-12-29T03:15:17.758Z,3.80
2022-12-29T03:20:30.138Z,2.08
2022-12-29T03:25:37.112Z,1.20
2022-12-29T03:30:46.486Z,3.35
2022-12-29T03:35:53.646Z,1.00
2022-12-29T03:41:03.429Z,1.52
2022-12-29T03:46:06.551Z,0.70
2022-12-29T03:51:10.407Z,3.13
2022-12-29T03:56:12.955Z,1.98
2022-12-29T04:01:15.625Z,2.38
2022-12-29T04:06:20.697Z,3.85
2022-12-29T04:11:33.040Z,2.03
2022-12-29T04:16:40.054Z,2.88
2022-12-29T04:21:43.634Z,3.08
2022-12-29T04:26:46.261Z,2.33
2022-12-29T04:32:02.289Z,3.58
2022-12-29T04:37:08.019Z,3.45
2022-12-29T04:42:10.591Z,2.97
2022-12-29T04:47:13.281Z,2.13
2022-12-29T04:52:25.271Z,4.80
2022-12-29T04:57:29.745Z,3.13
2022-12-29T05:02:35.000Z,0.73
2022-12-29T05:07:37.615Z,5.40
2022-12-29T05:12:40.495Z,1.98
2022-12-29T05:17:43.387Z,2.58
2022-12-29T05:22:46.071Z,2.90
2022-12-29T05:27:48.582Z,4.93
2022-12-29T05:33:00.320Z,4.22
2022-12-29T05:38:03.074Z,2.38
2022-12-29T05:43:06.385Z,2.53
2022-12-29T05:48:17.556Z,1.80
2022-12-29T05:53:28.978Z,3.38
2022-12-29T05:58:33.191Z,3.22
2022-12-29T06:03:36.427Z,3.20
2022-12-29T06:08:38.994Z,1.80
2022-12-29T06:13:41.648Z,4.65
2022-12-29T06:18:44.538Z,4.32
2022-12-29T06:23:47.206Z,1.83
2022-12-29T06:28:49.708Z,3.20
2022-12-29T06:39:12.860Z,2.33
2022-12-29T06:44:15.629Z,1.45
2022-12-29T06:49:25.641Z,2.25
2022-12-29T06:54:28.296Z,4.10
2022-12-29T06:59:30.746Z,14.98
2022-12-29T07:04:33.300Z,11.48
2022-12-29T07:09:36.101Z,15.57
2022-12-29T07:14:42.850Z,10.15
2022-12-29T07:24:48.773Z,15.63
2022-12-29T07:29:51.310Z,9.38
2022-12-29T07:34:53.869Z,4.68
2022-12-29T07:39:56.279Z,9.13
2022-12-29T07:44:58.747Z,5.40
2022-12-29T07:50:07.180Z,17.88
2022-12-29T07:55:10.253Z,16.50
2022-12-29T08:00:13.728Z,14.55
2022-12-29T08:05:16.746Z,48.60
2022-12-29T08:10:19.484Z,15.82
2022-12-29T08:15:27.042Z,37.90
2022-12-29T08:20:33.773Z,14.38
2022-12-29T08:31:02.753Z,4.82
2022-12-29T08:41:27.487Z,13.50
2022-12-29T08:46:30.003Z,7.07
2022-12-29T08:51:32.685Z,4.15
2022-12-29T08:56:35.095Z,7.18
2022-12-29T09:01:41.718Z,4.22
2022-12-29T09:06:45.647Z,8.38
2022-12-29T09:11:48.400Z,23.92
2022-12-29T09:17:11.929Z,4.53
2022-12-29T09:22:14.370Z,6.65
2022-12-29T09:27:16.928Z,11.77
2022-12-29T09:32:19.875Z,10.43
2022-12-29T09:37:23.572Z,5.85
2022-12-29T09:42:48.541Z,5.82
2022-12-29T09:47:52.245Z,3.45
2022-12-29T09:53:13.770Z,4.63
2022-12-29T09:58:30.562Z,6.90
2022-12-29T10:03:56.102Z,5.28
2022-12-29T10:09:02.541Z,4.47
2022-12-29T10:14:16.829Z,3.60
2022-12-29T10:19:43.178Z,4.30
2022-12-29T10:24:48.041Z,18.67
2022-12-29T10:29:56.394Z,8.02
2022-12-29T10:35:22.374Z,4.65
2022-12-29T10:40:29.988Z,2.95
2022-12-29T10:45:34.974Z,3.03
2022-12-29T10:55:48.170Z,4.13
2022-12-29T11:00:53.529Z,3.42
2022-12-29T11:06:07.166Z,2.88
2022-12-29T11:16:13.503Z,8.75
2022-12-29T11:21:27.549Z,4.93
2022-12-29T11:26:34.836Z,7.18
2022-12-29T11:31:44.997Z,2.08
2022-12-29T11:42:16.976Z,7.93
2022-12-29T11:47:32.527Z,8.65
2022-12-29T11:52:40.790Z,4.90
2022-12-29T11:57:44.512Z,2.90
2022-12-29T12:03:06.374Z,4.75
2022-12-29T12:08:17.583Z,7.55
2022-12-29T12:13:43.211Z,4.88
2022-12-29T12:19:17.312Z,2.13
2022-12-29T12:24:33.340Z,6.85
2022-12-29T12:29:39.952Z,8.02
2022-12-29T12:40:31.863Z,15.23
2022-12-29T12:45:43.337Z,12.15
2022-12-29T12:51:27.733Z,6.13
2022-12-29T12:56:58.187Z,13.82
2022-12-29T13:02:28.361Z,9.38
2022-12-29T13:07:33.729Z,4.53
2022-12-29T13:13:16.797Z,5.30
2022-12-29T13:18:34.351Z,4.82
2022-12-29T13:23:47.979Z,11.60
2022-12-29T13:29:01.069Z,4.18
2022-12-29T13:34:24.055Z,7.55
2022-12-29T13:39:36.203Z,7.75
2022-12-29T13:44:46.884Z,6.88
2022-12-29T13:49:51.481Z,7.28
2022-12-29T13:55:21.017Z,8.30
2022-12-29T14:00:27.536Z,8.18
2022-12-29T14:05:32.991Z,9.32
2022-12-29T14:10:52.963Z,6.53
2022-12-29T14:16:00.563Z,7.85
2022-12-29T14:21:29.117Z,4.55
2022-12-29T14:26:31.533Z,6.22
2022-12-29T14:43:26.524Z,7.85
2022-12-29T14:48:40.404Z,6.57
2022-12-29T14:53:52.409Z,7.75
2022-12-29T14:58:58.670Z,10.60
2022-12-29T15:04:07.808Z,13.93
2022-12-29T15:09:28.749Z,9.73
2022-12-29T15:14:40.766Z,12.00
2022-12-29T15:19:43.243Z,10.57
2022-12-29T15:30:17.867Z,7.35
2022-12-29T15:35:29.957Z,9.95
2022-12-29T15:40:34.072Z,7.35
2022-12-29T15:45:37.161Z,10.52
2022-12-29T15:50:44.303Z,7.40
2022-12-29T15:55:50.909Z,9.05
2022-12-29T16:01:02.566Z,13.55
2022-12-29T16:06:09.675Z,9.00
2022-12-29T16:11:26.469Z,13.25
2022-12-29T16:16:36.829Z,7.18
2022-12-29T16:21:39.411Z,6.30
2022-12-29T16:26:48.983Z,7.65
2022-12-29T16:32:04.472Z,7.45
2022-12-29T16:37:31.635Z,7.85
2022-12-29T16:42:51.404Z,7.55
2022-12-29T16:48:07.187Z,6.45
2022-12-29T16:53:28.365Z,9.48
2022-12-29T16:58:33.045Z,8.20
2022-12-29T17:03:45.323Z,9.82
2022-12-29T17:08:49.068Z,38.33
2022-12-29T17:13:51.506Z,9.10
2022-12-29T17:18:54.264Z,14.05
2022-12-29T17:23:56.890Z,9.10
2022-12-29T17:28:59.545Z,10.90
2022-12-29T17:34:01.995Z,9.20
2022-12-29T17:39:06.099Z,7.07
2022-12-29T17:44:15.231Z,12.70
2022-12-29T17:49:19.367Z,9.55
2022-12-29T17:54:26.682Z,8.75
2022-12-29T17:59:29.097Z,8.38
2022-12-29T18:04:31.648Z,13.38
2022-12-29T18:09:34.125Z,10.07
2022-12-29T18:14:36.552Z,10.82
2022-12-29T18:19:38.970Z,10.80
2022-12-29T18:24:41.384Z,10.80
2022-12-29T18:29:43.914Z,12.50
2022-12-29T18:34:46.355Z,8.43
2022-12-29T18:39:48.767Z,12.45
2022-12-29T18:44:51.282Z,9.32
2022-12-29T18:49:54.808Z,15.10
2022-12-29T18:54:57.301Z,12.75
2022-12-29T18:59:59.808Z,12.48
2022-12-29T19:05:07.356Z,16.60
2022-12-29T19:10:11.276Z,13.25
2022-12-29T19:15:38.189Z,13.68
2022-12-29T19:26:02.858Z,17.08
2022-12-29T19:31:05.472Z,12.20
2022-12-29T19:36:09.957Z,12.43
2022-12-29T19:41:13.661Z,12.90
2022-12-29T19:46:18.278Z,13.30
2022-12-29T19:51:21.044Z,9.00
2022-12-29T19:56:23.745Z,12.20
2022-12-29T20:01:26.777Z,14.05
2022-12-29T20:06:29.381Z,10.48
2022-12-29T20:11:31.879Z,13.93
2022-12-29T20:16:41.201Z,12.40
2022-12-29T20:21:57.205Z,10.73
2022-12-29T20:27:00.910Z,9.07
2022-12-29T20:32:03.417Z,10.02
2022-12-29T20:37:06.141Z,9.73
2022-12-29T20:42:08.648Z,10.95
2022-12-29T20:47:11.155Z,8.90
2022-12-29T20:52:13.853Z,17.08
2022-12-29T20:57:16.347Z,12.93
2022-12-29T21:02:22.773Z,14.27
2022-12-29T21:07:25.376Z,13.77
2022-12-29T21:12:27.929Z,15.85
2022-12-29T21:17:30.395Z,17.42
2022-12-29T21:22:32.900Z,19.88
2022-12-29T21:27:35.315Z,23.67
2022-12-29T21:32:37.865Z,18.80
2022-12-29T21:37:40.397Z,14.07
2022-12-29T21:42:42.846Z,17.35
2022-12-29T21:48:03.960Z,18.50
2022-12-29T21:53:06.438Z,14.80
2022-12-29T21:58:27.561Z,19.95
2022-12-29T22:03:48.781Z,19.02
2022-12-29T22:09:09.982Z,14.98
2022-12-29T22:14:12.507Z,16.15
2022-12-29T22:19:16.143Z,17.70
2022-12-29T22:24:18.580Z,18.30
2022-12-29T22:29:21.222Z,16.73
2022-12-29T22:34:24.248Z,16.27
2022-12-29T22:39:26.727Z,16.60
2022-12-29T22:44:29.192Z,14.32
2022-12-29T22:49:31.870Z,17.35
2022-12-29T22:54:34.501Z,14.82
2022-12-29T22:59:37.004Z,20.02
2022-12-29T23:10:02.828Z,15.93
2022-12-29T23:15:06.631Z,18.15
2022-12-29T23:20:09.941Z,15.35
2022-12-29T23:25:12.372Z,16.48
2022-12-29T23:30:14.831Z,19.52
2022-12-29T23:35:17.763Z,18.20
2022-12-29T23:40:20.229Z,20.23
2022-12-29T23:45:22.644Z,14.73
2022-12-29T23:50:25.158Z,16.70
2022-12-29T23:55:27.644Z,17.70
